Terminal Aerodrome Forecast
Issued by NWS

Home | Current Version | Previous Version | Text Only | Print | Product List | Glossary On
Versions: 1 2 3 4 5 6 7 8 9 10 11 12 13 14
480
FTUS46 KSTO 271122
TAFSCK
TAF
KSCK 271122Z 2712/2812 28008KT P6SM SCT250
     FM271400 27006KT P6SM BKN030
      TEMPO 2714/2717 2SM BR BKN010
     FM272000 33015G21KT P6SM SCT250
     FM280200 30010KT P6SM SKC=

USA.gov is the U.S. government's official web portal to all federal, state and local government web resources and services.